sensor_id;sensor_type;location;lat;lon;timestamp;P1;durP1;ratioP1;P2;durP2;ratioP2
325;SDS011;150;52.352;14.058;2024-03-07T00:00:45;39.03;;;21.80;;
325;SDS011;150;52.352;14.058;2024-03-07T00:03:13;32.60;;;19.50;;
325;SDS011;150;52.352;14.058;2024-03-07T00:05:41;29.10;;;20.00;;
325;SDS011;150;52.352;14.058;2024-03-07T00:08:08;30.45;;;19.13;;
325;SDS011;150;52.352;14.058;2024-03-07T00:10:36;32.67;;;18.75;;
325;SDS011;150;52.352;14.058;2024-03-07T00:13:03;31.48;;;20.58;;
325;SDS011;150;52.352;14.058;2024-03-07T00:15:29;37.13;;;19.20;;
325;SDS011;150;52.352;14.058;2024-03-07T00:17:56;37.22;;;20.45;;
325;SDS011;150;52.352;14.058;2024-03-07T00:20:25;39.72;;;19.98;;
325;SDS011;150;52.352;14.058;2024-03-07T00:22:51;39.40;;;21.50;;
325;SDS011;150;52.352;14.058;2024-03-07T00:25:18;48.38;;;22.55;;
325;SDS011;150;52.352;14.058;2024-03-07T00:27:45;35.25;;;21.17;;
325;SDS011;150;52.352;14.058;2024-03-07T00:30:12;37.00;;;19.57;;
325;SDS011;150;52.352;14.058;2024-03-07T00:32:43;37.70;;;20.87;;
325;SDS011;150;52.352;14.058;2024-03-07T00:35:10;44.60;;;21.92;;
325;SDS011;150;52.352;14.058;2024-03-07T00:37:38;36.85;;;21.02;;
325;SDS011;150;52.352;14.058;2024-03-07T00:40:05;47.47;;;23.50;;
325;SDS011;150;52.352;14.058;2024-03-07T00:42:33;39.17;;;21.98;;
325;SDS011;150;52.352;14.058;2024-03-07T00:45:00;48.22;;;23.85;;
325;SDS011;150;52.352;14.058;2024-03-07T00:47:28;40.90;;;21.53;;
325;SDS011;150;52.352;14.058;2024-03-07T00:49:56;45.60;;;22.88;;
325;SDS011;150;52.352;14.058;2024-03-07T00:52:22;42.50;;;22.65;;
325;SDS011;150;52.352;14.058;2024-03-07T00:54:51;39.75;;;23.17;;
325;SDS011;150;52.352;14.058;2024-03-07T00:57:18;45.33;;;22.60;;
325;SDS011;150;52.352;14.058;2024-03-07T00:59:45;39.15;;;20.77;;
325;SDS011;150;52.352;14.058;2024-03-07T01:02:13;35.88;;;21.58;;
325;SDS011;150;52.352;14.058;2024-03-07T01:04:42;41.67;;;22.40;;
325;SDS011;150;52.352;14.058;2024-03-07T01:07:08;40.15;;;20.80;;
325;SDS011;150;52.352;14.058;2024-03-07T01:09:35;53.58;;;24.33;;
325;SDS011;150;52.352;14.058;2024-03-07T01:12:03;42.70;;;20.10;;
325;SDS011;150;52.352;14.058;2024-03-07T01:14:30;46.90;;;22.58;;
325;SDS011;150;52.352;14.058;2024-03-07T01:16:57;41.88;;;20.92;;
325;SDS011;150;52.352;14.058;2024-03-07T01:19:24;52.78;;;23.25;;
325;SDS011;150;52.352;14.058;2024-03-07T01:21:51;37.70;;;20.60;;
325;SDS011;150;52.352;14.058;2024-03-07T01:24:17;35.00;;;20.48;;
325;SDS011;150;52.352;14.058;2024-03-07T01:26:45;35.25;;;19.80;;
325;SDS011;150;52.352;14.058;2024-03-07T01:29:13;42.40;;;20.40;;
325;SDS011;150;52.352;14.058;2024-03-07T01:31:40;35.50;;;19.88;;
325;SDS011;150;52.352;14.058;2024-03-07T01:34:07;32.63;;;19.55;;
325;SDS011;150;52.352;14.058;2024-03-07T01:36:34;38.92;;;21.40;;
325;SDS011;150;52.352;14.058;2024-03-07T01:39:01;33.38;;;20.55;;
325;SDS011;150;52.352;14.058;2024-03-07T01:41:28;40.57;;;19.73;;
325;SDS011;150;52.352;14.058;2024-03-07T01:43:55;36.17;;;20.73;;
325;SDS011;150;52.352;14.058;2024-03-07T01:46:23;30.55;;;17.73;;
325;SDS011;150;52.352;14.058;2024-03-07T01:48:50;33.42;;;18.58;;
325;SDS011;150;52.352;14.058;2024-03-07T01:51:18;33.33;;;19.02;;
325;SDS011;150;52.352;14.058;2024-03-07T01:53:46;32.05;;;17.20;;
325;SDS011;150;52.352;14.058;2024-03-07T01:56:13;31.03;;;16.53;;
325;SDS011;150;52.352;14.058;2024-03-07T01:58:40;32.83;;;18.23;;
325;SDS011;150;52.352;14.058;2024-03-07T02:01:08;28.35;;;16.00;;
325;SDS011;150;52.352;14.058;2024-03-07T02:03:36;25.83;;;15.45;;
325;SDS011;150;52.352;14.058;2024-03-07T02:06:03;26.58;;;17.05;;
325;SDS011;150;52.352;14.058;2024-03-07T02:08:30;30.90;;;17.58;;
325;SDS011;150;52.352;14.058;2024-03-07T02:10:57;26.50;;;15.43;;
325;SDS011;150;52.352;14.058;2024-03-07T02:13:24;35.72;;;17.77;;
325;SDS011;150;52.352;14.058;2024-03-07T02:15:53;25.83;;;15.70;;
325;SDS011;150;52.352;14.058;2024-03-07T02:18:20;24.35;;;14.18;;
325;SDS011;150;52.352;14.058;2024-03-07T02:20:48;24.03;;;16.23;;
325;SDS011;150;52.352;14.058;2024-03-07T02:23:15;32.50;;;16.30;;
325;SDS011;150;52.352;14.058;2024-03-07T02:25:41;25.03;;;14.60;;
325;SDS011;150;52.352;14.058;2024-03-07T02:28:08;30.73;;;17.67;;
325;SDS011;150;52.352;14.058;2024-03-07T02:30:35;36.45;;;17.15;;
325;SDS011;150;52.352;14.058;2024-03-07T02:33:01;21.67;;;15.43;;
325;SDS011;150;52.352;14.058;2024-03-07T02:35:31;30.75;;;17.80;;
325;SDS011;150;52.352;14.058;2024-03-07T02:38:01;28.10;;;16.02;;
325;SDS011;150;52.352;14.058;2024-03-07T02:40:28;25.63;;;15.43;;
325;SDS011;150;52.352;14.058;2024-03-07T02:42:55;28.40;;;15.90;;
325;SDS011;150;52.352;14.058;2024-03-07T02:45:21;26.08;;;15.05;;
325;SDS011;150;52.352;14.058;2024-03-07T02:47:48;24.88;;;16.33;;
325;SDS011;150;52.352;14.058;2024-03-07T02:50:15;28.65;;;15.73;;
325;SDS011;150;52.352;14.058;2024-03-07T02:52:41;29.10;;;17.58;;
325;SDS011;150;52.352;14.058;2024-03-07T02:55:09;24.48;;;14.63;;
325;SDS011;150;52.352;14.058;2024-03-07T02:57:36;25.98;;;17.00;;
325;SDS011;150;52.352;14.058;2024-03-07T03:00:03;27.50;;;15.48;;
325;SDS011;150;52.352;14.058;2024-03-07T03:02:38;22.17;;;13.98;;
325;SDS011;150;52.352;14.058;2024-03-07T03:05:05;24.15;;;14.68;;
325;SDS011;150;52.352;14.058;2024-03-07T03:07:34;27.40;;;16.42;;
325;SDS011;150;52.352;14.058;2024-03-07T03:10:00;23.63;;;15.23;;
325;SDS011;150;52.352;14.058;2024-03-07T03:12:33;25.83;;;14.98;;
325;SDS011;150;52.352;14.058;2024-03-07T03:15:02;22.08;;;14.70;;
325;SDS011;150;52.352;14.058;2024-03-07T03:17:30;24.23;;;14.77;;
325;SDS011;150;52.352;14.058;2024-03-07T03:19:57;25.15;;;13.98;;
325;SDS011;150;52.352;14.058;2024-03-07T03:22:23;20.20;;;13.13;;
325;SDS011;150;52.352;14.058;2024-03-07T03:24:51;17.50;;;12.40;;
325;SDS011;150;52.352;14.058;2024-03-07T03:27:20;21.60;;;15.25;;
325;SDS011;150;52.352;14.058;2024-03-07T03:29:48;22.92;;;14.80;;
325;SDS011;150;52.352;14.058;2024-03-07T03:32:15;19.15;;;13.35;;
325;SDS011;150;52.352;14.058;2024-03-07T03:34:42;19.63;;;13.50;;
325;SDS011;150;52.352;14.058;2024-03-07T03:37:08;26.40;;;15.38;;
325;SDS011;150;52.352;14.058;2024-03-07T03:39:36;18.73;;;13.05;;
325;SDS011;150;52.352;14.058;2024-03-07T03:42:03;19.57;;;13.17;;
325;SDS011;150;52.352;14.058;2024-03-07T03:44:31;21.98;;;12.60;;
325;SDS011;150;52.352;14.058;2024-03-07T03:47:00;20.58;;;14.32;;
325;SDS011;150;52.352;14.058;2024-03-07T03:49:29;17.98;;;13.80;;
325;SDS011;150;52.352;14.058;2024-03-07T03:51:55;19.35;;;12.60;;
325;SDS011;150;52.352;14.058;2024-03-07T03:54:22;24.02;;;14.13;;
325;SDS011;150;52.352;14.058;2024-03-07T03:56:49;24.15;;;13.23;;
325;SDS011;150;52.352;14.058;2024-03-07T03:59:16;22.25;;;12.82;;
325;SDS011;150;52.352;14.058;2024-03-07T04:01:42;22.98;;;15.38;;
325;SDS011;150;52.352;14.058;2024-03-07T04:04:11;20.60;;;13.63;;
325;SDS011;150;52.352;14.058;2024-03-07T04:06:38;17.33;;;11.25;;
325;SDS011;150;52.352;14.058;2024-03-07T04:09:05;17.90;;;12.30;;
325;SDS011;150;52.352;14.058;2024-03-07T04:11:32;20.33;;;13.77;;
325;SDS011;150;52.352;14.058;2024-03-07T04:13:58;19.65;;;11.65;;
325;SDS011;150;52.352;14.058;2024-03-07T04:16:26;16.25;;;10.80;;
325;SDS011;150;52.352;14.058;2024-03-07T04:18:53;15.63;;;12.60;;
325;SDS011;150;52.352;14.058;2024-03-07T04:21:21;19.70;;;13.33;;
325;SDS011;150;52.352;14.058;2024-03-07T04:23:47;16.20;;;11.52;;
325;SDS011;150;52.352;14.058;2024-03-07T04:26:14;21.73;;;14.77;;
325;SDS011;150;52.352;14.058;2024-03-07T04:28:41;17.65;;;12.38;;
325;SDS011;150;52.352;14.058;2024-03-07T04:31:07;15.52;;;12.13;;
325;SDS011;150;52.352;14.058;2024-03-07T04:33:34;22.27;;;14.63;;
325;SDS011;150;52.352;14.058;2024-03-07T04:36:01;19.33;;;13.03;;
325;SDS011;150;52.352;14.058;2024-03-07T04:38:29;17.17;;;12.35;;
325;SDS011;150;52.352;14.058;2024-03-07T04:40:56;20.07;;;13.40;;
325;SDS011;150;52.352;14.058;2024-03-07T04:43:22;18.90;;;11.95;;
325;SDS011;150;52.352;14.058;2024-03-07T04:45:51;22.98;;;11.23;;
325;SDS011;150;52.352;14.058;2024-03-07T04:48:17;22.45;;;13.95;;
325;SDS011;150;52.352;14.058;2024-03-07T04:50:44;16.30;;;11.63;;
325;SDS011;150;52.352;14.058;2024-03-07T04:53:11;16.25;;;11.75;;
325;SDS011;150;52.352;14.058;2024-03-07T04:55:39;21.65;;;13.60;;
325;SDS011;150;52.352;14.058;2024-03-07T04:58:05;24.60;;;11.85;;
325;SDS011;150;52.352;14.058;2024-03-07T05:00:32;20.45;;;12.70;;
325;SDS011;150;52.352;14.058;2024-03-07T05:02:59;19.30;;;12.77;;
325;SDS011;150;52.352;14.058;2024-03-07T05:05:25;18.55;;;11.68;;
325;SDS011;150;52.352;14.058;2024-03-07T05:07:52;17.38;;;10.80;;
325;SDS011;150;52.352;14.058;2024-03-07T05:10:18;21.15;;;14.30;;
325;SDS011;150;52.352;14.058;2024-03-07T05:12:46;16.25;;;11.85;;
325;SDS011;150;52.352;14.058;2024-03-07T05:15:13;15.43;;;11.13;;
325;SDS011;150;52.352;14.058;2024-03-07T05:17:40;17.75;;;11.50;;
325;SDS011;150;52.352;14.058;2024-03-07T05:20:08;18.17;;;11.70;;
325;SDS011;150;52.352;14.058;2024-03-07T05:22:35;19.27;;;12.45;;
325;SDS011;150;52.352;14.058;2024-03-07T05:25:05;18.15;;;10.70;;
325;SDS011;150;52.352;14.058;2024-03-07T05:30:06;24.42;;;12.52;;
325;SDS011;150;52.352;14.058;2024-03-07T05:32:36;19.20;;;11.63;;
325;SDS011;150;52.352;14.058;2024-03-07T05:35:03;18.33;;;13.32;;
325;SDS011;150;52.352;14.058;2024-03-07T05:37:30;15.50;;;11.60;;
325;SDS011;150;52.352;14.058;2024-03-07T05:39:57;18.40;;;12.45;;
325;SDS011;150;52.352;14.058;2024-03-07T05:42:24;19.70;;;11.82;;
325;SDS011;150;52.352;14.058;2024-03-07T05:44:51;18.65;;;13.52;;
325;SDS011;150;52.352;14.058;2024-03-07T05:47:20;21.02;;;14.43;;
325;SDS011;150;52.352;14.058;2024-03-07T05:49:46;19.90;;;13.43;;
325;SDS011;150;52.352;14.058;2024-03-07T05:52:13;22.30;;;16.02;;
325;SDS011;150;52.352;14.058;2024-03-07T05:54:40;23.02;;;14.65;;
325;SDS011;150;52.352;14.058;2024-03-07T05:57:08;25.17;;;14.50;;
325;SDS011;150;52.352;14.058;2024-03-07T05:59:36;25.92;;;15.90;;
325;SDS011;150;52.352;14.058;2024-03-07T06:02:03;23.75;;;16.08;;
325;SDS011;150;52.352;14.058;2024-03-07T06:04:31;26.25;;;13.75;;
325;SDS011;150;52.352;14.058;2024-03-07T06:06:59;25.53;;;13.57;;
325;SDS011;150;52.352;14.058;2024-03-07T06:09:25;13.48;;;10.07;;
325;SDS011;150;52.352;14.058;2024-03-07T06:11:52;19.52;;;11.02;;
325;SDS011;150;52.352;14.058;2024-03-07T06:14:18;16.70;;;11.38;;
325;SDS011;150;52.352;14.058;2024-03-07T06:16:45;15.55;;;11.95;;
325;SDS011;150;52.352;14.058;2024-03-07T06:19:12;15.83;;;11.33;;
325;SDS011;150;52.352;14.058;2024-03-07T06:21:40;19.48;;;11.40;;
325;SDS011;150;52.352;14.058;2024-03-07T06:24:06;19.15;;;11.85;;
325;SDS011;150;52.352;14.058;2024-03-07T06:26:35;16.05;;;10.65;;
325;SDS011;150;52.352;14.058;2024-03-07T06:29:11;18.23;;;11.00;;
325;SDS011;150;52.352;14.058;2024-03-07T06:31:37;14.93;;;11.10;;
325;SDS011;150;52.352;14.058;2024-03-07T06:34:03;16.42;;;11.05;;
325;SDS011;150;52.352;14.058;2024-03-07T06:36:30;16.27;;;11.27;;
325;SDS011;150;52.352;14.058;2024-03-07T06:38:59;21.50;;;12.35;;
325;SDS011;150;52.352;14.058;2024-03-07T06:41:25;14.38;;;10.40;;
325;SDS011;150;52.352;14.058;2024-03-07T06:43:52;19.40;;;11.07;;
325;SDS011;150;52.352;14.058;2024-03-07T06:46:20;19.15;;;10.40;;
325;SDS011;150;52.352;14.058;2024-03-07T06:48:47;15.95;;;10.45;;
325;SDS011;150;52.352;14.058;2024-03-07T06:51:13;24.42;;;11.90;;
325;SDS011;150;52.352;14.058;2024-03-07T06:53:42;17.23;;;11.27;;
325;SDS011;150;52.352;14.058;2024-03-07T06:56:11;16.00;;;11.32;;
325;SDS011;150;52.352;14.058;2024-03-07T06:58:38;15.68;;;10.50;;
325;SDS011;150;52.352;14.058;2024-03-07T07:01:05;20.13;;;11.00;;
325;SDS011;150;52.352;14.058;2024-03-07T07:03:34;21.60;;;12.65;;
325;SDS011;150;52.352;14.058;2024-03-07T07:06:01;14.98;;;10.40;;
325;SDS011;150;52.352;14.058;2024-03-07T07:08:27;18.70;;;11.88;;
325;SDS011;150;52.352;14.058;2024-03-07T07:10:54;13.43;;;9.82;;
325;SDS011;150;52.352;14.058;2024-03-07T07:13:22;15.13;;;10.73;;
325;SDS011;150;52.352;14.058;2024-03-07T07:15:49;20.13;;;11.40;;
325;SDS011;150;52.352;14.058;2024-03-07T07:18:15;21.80;;;11.70;;
325;SDS011;150;52.352;14.058;2024-03-07T07:20:42;11.20;;;9.50;;
325;SDS011;150;52.352;14.058;2024-03-07T07:23:09;12.60;;;8.60;;
325;SDS011;150;52.352;14.058;2024-03-07T07:25:38;12.02;;;9.25;;
325;SDS011;150;52.352;14.058;2024-03-07T07:28:06;15.33;;;10.10;;
325;SDS011;150;52.352;14.058;2024-03-07T07:30:36;14.65;;;10.27;;
325;SDS011;150;52.352;14.058;2024-03-07T07:33:03;18.35;;;11.27;;
325;SDS011;150;52.352;14.058;2024-03-07T07:35:30;18.13;;;10.75;;
325;SDS011;150;52.352;14.058;2024-03-07T07:37:57;16.53;;;10.13;;
325;SDS011;150;52.352;14.058;2024-03-07T07:40:24;16.45;;;10.73;;
325;SDS011;150;52.352;14.058;2024-03-07T07:42:52;15.23;;;10.82;;
325;SDS011;150;52.352;14.058;2024-03-07T07:45:20;15.80;;;11.10;;
325;SDS011;150;52.352;14.058;2024-03-07T07:47:49;12.50;;;8.10;;
325;SDS011;150;52.352;14.058;2024-03-07T07:50:17;13.45;;;9.82;;
325;SDS011;150;52.352;14.058;2024-03-07T07:52:45;17.50;;;11.27;;
325;SDS011;150;52.352;14.058;2024-03-07T07:55:13;15.60;;;9.00;;
325;SDS011;150;52.352;14.058;2024-03-07T07:57:43;17.05;;;11.65;;
325;SDS011;150;52.352;14.058;2024-03-07T08:00:12;13.38;;;10.27;;
325;SDS011;150;52.352;14.058;2024-03-07T08:02:46;20.08;;;12.35;;
325;SDS011;150;52.352;14.058;2024-03-07T08:05:19;14.18;;;10.27;;
325;SDS011;150;52.352;14.058;2024-03-07T08:07:48;12.48;;;9.25;;
325;SDS011;150;52.352;14.058;2024-03-07T08:10:16;12.00;;;9.20;;
325;SDS011;150;52.352;14.058;2024-03-07T08:12:43;15.05;;;9.88;;
325;SDS011;150;52.352;14.058;2024-03-07T08:15:11;14.25;;;9.75;;
325;SDS011;150;52.352;14.058;2024-03-07T08:17:39;18.70;;;10.45;;
325;SDS011;150;52.352;14.058;2024-03-07T08:20:09;12.88;;;7.75;;
325;SDS011;150;52.352;14.058;2024-03-07T08:22:37;15.13;;;10.93;;
325;SDS011;150;52.352;14.058;2024-03-07T08:25:05;18.45;;;11.75;;
325;SDS011;150;52.352;14.058;2024-03-07T08:27:34;16.70;;;9.95;;
325;SDS011;150;52.352;14.058;2024-03-07T08:30:02;11.93;;;9.15;;
325;SDS011;150;52.352;14.058;2024-03-07T08:32:31;12.87;;;10.20;;
325;SDS011;150;52.352;14.058;2024-03-07T08:34:58;12.95;;;9.43;;
325;SDS011;150;52.352;14.058;2024-03-07T08:37:26;14.52;;;10.70;;
325;SDS011;150;52.352;14.058;2024-03-07T08:39:52;15.38;;;8.98;;
325;SDS011;150;52.352;14.058;2024-03-07T08:42:19;12.27;;;8.30;;
325;SDS011;150;52.352;14.058;2024-03-07T08:44:45;16.77;;;10.18;;
325;SDS011;150;52.352;14.058;2024-03-07T08:47:12;16.05;;;9.45;;
325;SDS011;150;52.352;14.058;2024-03-07T08:49:38;17.92;;;9.45;;
325;SDS011;150;52.352;14.058;2024-03-07T08:52:05;15.40;;;9.35;;
325;SDS011;150;52.352;14.058;2024-03-07T08:54:34;11.15;;;8.55;;
325;SDS011;150;52.352;14.058;2024-03-07T08:57:01;12.15;;;9.82;;
325;SDS011;150;52.352;14.058;2024-03-07T08:59:29;15.90;;;8.63;;
325;SDS011;150;52.352;14.058;2024-03-07T09:01:58;30.20;;;22.77;;
325;SDS011;150;52.352;14.058;2024-03-07T09:04:26;12.98;;;9.85;;
325;SDS011;150;52.352;14.058;2024-03-07T09:06:53;13.20;;;8.50;;
325;SDS011;150;52.352;14.058;2024-03-07T09:09:20;13.88;;;8.98;;
325;SDS011;150;52.352;14.058;2024-03-07T09:11:48;12.40;;;8.55;;
325;SDS011;150;52.352;14.058;2024-03-07T09:14:14;12.90;;;8.38;;
325;SDS011;150;52.352;14.058;2024-03-07T09:16:41;13.38;;;8.50;;
325;SDS011;150;52.352;14.058;2024-03-07T09:19:08;10.73;;;8.02;;
325;SDS011;150;52.352;14.058;2024-03-07T09:21:39;12.93;;;9.00;;
325;SDS011;150;52.352;14.058;2024-03-07T09:24:06;10.75;;;8.30;;
325;SDS011;150;52.352;14.058;2024-03-07T09:26:33;15.27;;;10.40;;
325;SDS011;150;52.352;14.058;2024-03-07T09:29:01;12.98;;;7.60;;
325;SDS011;150;52.352;14.058;2024-03-07T09:31:31;12.60;;;8.50;;
325;SDS011;150;52.352;14.058;2024-03-07T09:33:57;11.40;;;8.27;;
325;SDS011;150;52.352;14.058;2024-03-07T09:36:24;11.90;;;7.70;;
325;SDS011;150;52.352;14.058;2024-03-07T09:38:51;18.02;;;11.45;;
325;SDS011;150;52.352;14.058;2024-03-07T09:41:18;12.52;;;8.45;;
325;SDS011;150;52.352;14.058;2024-03-07T09:43:45;9.27;;;7.40;;
325;SDS011;150;52.352;14.058;2024-03-07T09:46:14;14.00;;;8.80;;
325;SDS011;150;52.352;14.058;2024-03-07T09:48:42;13.40;;;8.03;;
325;SDS011;150;52.352;14.058;2024-03-07T09:51:09;14.13;;;7.97;;
325;SDS011;150;52.352;14.058;2024-03-07T09:53:38;11.10;;;8.80;;
325;SDS011;150;52.352;14.058;2024-03-07T09:56:06;12.00;;;8.35;;
325;SDS011;150;52.352;14.058;2024-03-07T09:58:33;12.35;;;8.55;;
325;SDS011;150;52.352;14.058;2024-03-07T10:01:01;10.43;;;8.00;;
325;SDS011;150;52.352;14.058;2024-03-07T10:03:32;10.27;;;7.00;;
325;SDS011;150;52.352;14.058;2024-03-07T10:06:01;13.32;;;6.93;;
325;SDS011;150;52.352;14.058;2024-03-07T10:08:28;11.33;;;6.33;;
325;SDS011;150;52.352;14.058;2024-03-07T10:10:55;9.40;;;7.47;;
325;SDS011;150;52.352;14.058;2024-03-07T10:13:22;11.30;;;6.63;;
325;SDS011;150;52.352;14.058;2024-03-07T10:15:50;9.90;;;7.13;;
325;SDS011;150;52.352;14.058;2024-03-07T10:18:18;12.65;;;7.43;;
325;SDS011;150;52.352;14.058;2024-03-07T10:20:48;11.48;;;7.72;;
325;SDS011;150;52.352;14.058;2024-03-07T10:23:18;8.90;;;7.20;;
325;SDS011;150;52.352;14.058;2024-03-07T10:25:46;9.85;;;6.18;;
325;SDS011;150;52.352;14.058;2024-03-07T10:28:12;12.63;;;8.27;;
325;SDS011;150;52.352;14.058;2024-03-07T10:30:39;13.00;;;7.47;;
325;SDS011;150;52.352;14.058;2024-03-07T10:33:06;11.02;;;6.82;;
325;SDS011;150;52.352;14.058;2024-03-07T10:35:33;9.82;;;7.30;;
325;SDS011;150;52.352;14.058;2024-03-07T10:38:01;12.65;;;7.75;;
325;SDS011;150;52.352;14.058;2024-03-07T10:40:31;9.75;;;7.82;;
325;SDS011;150;52.352;14.058;2024-03-07T10:43:00;12.60;;;7.73;;
325;SDS011;150;52.352;14.058;2024-03-07T10:45:35;9.77;;;7.78;;
325;SDS011;150;52.352;14.058;2024-03-07T10:48:10;11.85;;;7.90;;
325;SDS011;150;52.352;14.058;2024-03-07T10:50:43;10.73;;;8.10;;
325;SDS011;150;52.352;14.058;2024-03-07T10:53:24;10.98;;;7.82;;
325;SDS011;150;52.352;14.058;2024-03-07T10:56:01;9.68;;;7.78;;
325;SDS011;150;52.352;14.058;2024-03-07T10:58:49;15.80;;;9.55;;
325;SDS011;150;52.352;14.058;2024-03-07T11:01:25;13.00;;;9.10;;
325;SDS011;150;52.352;14.058;2024-03-07T11:03:55;13.00;;;9.00;;
325;SDS011;150;52.352;14.058;2024-03-07T11:06:23;12.30;;;7.72;;
325;SDS011;150;52.352;14.058;2024-03-07T11:08:51;12.63;;;8.27;;
325;SDS011;150;52.352;14.058;2024-03-07T11:11:19;13.77;;;8.75;;
325;SDS011;150;52.352;14.058;2024-03-07T11:13:48;12.45;;;8.10;;
325;SDS011;150;52.352;14.058;2024-03-07T11:16:15;12.25;;;8.43;;
325;SDS011;150;52.352;14.058;2024-03-07T11:21:43;12.23;;;7.57;;
325;SDS011;150;52.352;14.058;2024-03-07T11:24:11;15.18;;;9.13;;
325;SDS011;150;52.352;14.058;2024-03-07T11:26:50;15.98;;;9.20;;
325;SDS011;150;52.352;14.058;2024-03-07T11:32:08;11.57;;;8.48;;
325;SDS011;150;52.352;14.058;2024-03-07T11:34:37;10.50;;;8.77;;
325;SDS011;150;52.352;14.058;2024-03-07T11:37:06;9.70;;;8.65;;
325;SDS011;150;52.352;14.058;2024-03-07T11:39:43;13.93;;;9.52;;
325;SDS011;150;52.352;14.058;2024-03-07T11:44:54;12.33;;;8.63;;
325;SDS011;150;52.352;14.058;2024-03-07T11:47:22;9.98;;;7.45;;
325;SDS011;150;52.352;14.058;2024-03-07T11:49:49;10.05;;;7.72;;
325;SDS011;150;52.352;14.058;2024-03-07T11:52:17;10.15;;;8.00;;
325;SDS011;150;52.352;14.058;2024-03-07T11:54:45;12.55;;;8.55;;
325;SDS011;150;52.352;14.058;2024-03-07T11:57:12;10.32;;;7.57;;
325;SDS011;150;52.352;14.058;2024-03-07T11:59:40;12.77;;;7.88;;
325;SDS011;150;52.352;14.058;2024-03-07T12:02:10;13.63;;;8.20;;
325;SDS011;150;52.352;14.058;2024-03-07T12:04:38;12.15;;;8.32;;
325;SDS011;150;52.352;14.058;2024-03-07T12:07:05;12.18;;;8.52;;
325;SDS011;150;52.352;14.058;2024-03-07T12:09:35;11.95;;;8.00;;
325;SDS011;150;52.352;14.058;2024-03-07T12:12:04;10.73;;;7.93;;
325;SDS011;150;52.352;14.058;2024-03-07T12:14:31;13.90;;;8.45;;
325;SDS011;150;52.352;14.058;2024-03-07T12:16:59;13.63;;;8.97;;
325;SDS011;150;52.352;14.058;2024-03-07T12:19:26;10.45;;;8.15;;
325;SDS011;150;52.352;14.058;2024-03-07T12:21:56;11.50;;;8.40;;
325;SDS011;150;52.352;14.058;2024-03-07T12:24:22;11.05;;;8.55;;
325;SDS011;150;52.352;14.058;2024-03-07T12:26:49;10.60;;;7.60;;
325;SDS011;150;52.352;14.058;2024-03-07T12:29:17;12.23;;;8.73;;
325;SDS011;150;52.352;14.058;2024-03-07T12:31:44;12.03;;;8.37;;
325;SDS011;150;52.352;14.058;2024-03-07T12:34:11;11.00;;;7.82;;
325;SDS011;150;52.352;14.058;2024-03-07T12:36:38;13.50;;;8.80;;
325;SDS011;150;52.352;14.058;2024-03-07T12:39:21;14.90;;;9.07;;
325;SDS011;150;52.352;14.058;2024-03-07T12:41:51;11.00;;;7.90;;
325;SDS011;150;52.352;14.058;2024-03-07T12:44:20;11.57;;;8.63;;
325;SDS011;150;52.352;14.058;2024-03-07T12:46:47;12.60;;;7.47;;
325;SDS011;150;52.352;14.058;2024-03-07T12:49:14;13.80;;;9.70;;
325;SDS011;150;52.352;14.058;2024-03-07T12:51:41;12.80;;;8.57;;
325;SDS011;150;52.352;14.058;2024-03-07T12:54:08;9.90;;;9.18;;
325;SDS011;150;52.352;14.058;2024-03-07T12:56:34;11.82;;;9.80;;
325;SDS011;150;52.352;14.058;2024-03-07T12:59:02;13.18;;;8.20;;
325;SDS011;150;52.352;14.058;2024-03-07T13:01:30;11.43;;;8.95;;
325;SDS011;150;52.352;14.058;2024-03-07T13:03:58;13.70;;;10.38;;
325;SDS011;150;52.352;14.058;2024-03-07T13:06:25;11.82;;;8.20;;
325;SDS011;150;52.352;14.058;2024-03-07T13:08:54;13.75;;;8.65;;
325;SDS011;150;52.352;14.058;2024-03-07T13:11:22;10.85;;;8.38;;
325;SDS011;150;52.352;14.058;2024-03-07T13:13:52;17.58;;;10.35;;
325;SDS011;150;52.352;14.058;2024-03-07T13:16:18;11.13;;;8.40;;
325;SDS011;150;52.352;14.058;2024-03-07T13:18:46;11.23;;;8.25;;
325;SDS011;150;52.352;14.058;2024-03-07T13:21:13;14.57;;;9.02;;
325;SDS011;150;52.352;14.058;2024-03-07T13:23:43;11.93;;;8.52;;
325;SDS011;150;52.352;14.058;2024-03-07T13:26:09;13.70;;;9.33;;
325;SDS011;150;52.352;14.058;2024-03-07T13:28:41;13.97;;;7.23;;
325;SDS011;150;52.352;14.058;2024-03-07T13:31:09;11.98;;;8.48;;
325;SDS011;150;52.352;14.058;2024-03-07T13:33:37;12.55;;;8.98;;
325;SDS011;150;52.352;14.058;2024-03-07T13:36:05;22.00;;;14.60;;
325;SDS011;150;52.352;14.058;2024-03-07T13:38:32;19.13;;;14.93;;
325;SDS011;150;52.352;14.058;2024-03-07T13:40:59;14.82;;;9.23;;
325;SDS011;150;52.352;14.058;2024-03-07T13:43:28;11.27;;;7.15;;
325;SDS011;150;52.352;14.058;2024-03-07T13:45:55;14.82;;;9.15;;
325;SDS011;150;52.352;14.058;2024-03-07T13:48:22;11.20;;;8.50;;
325;SDS011;150;52.352;14.058;2024-03-07T13:50:49;12.40;;;9.13;;
325;SDS011;150;52.352;14.058;2024-03-07T13:53:18;19.33;;;10.07;;
325;SDS011;150;52.352;14.058;2024-03-07T13:56:02;13.82;;;9.80;;
325;SDS011;150;52.352;14.058;2024-03-07T13:58:50;12.77;;;10.60;;
325;SDS011;150;52.352;14.058;2024-03-07T14:01:34;14.25;;;10.60;;
325;SDS011;150;52.352;14.058;2024-03-07T14:07:41;14.60;;;9.33;;
325;SDS011;150;52.352;14.058;2024-03-07T14:10:30;11.70;;;8.80;;
325;SDS011;150;52.352;14.058;2024-03-07T14:13:23;14.13;;;9.95;;
325;SDS011;150;52.352;14.058;2024-03-07T14:16:12;12.50;;;9.18;;
325;SDS011;150;52.352;14.058;2024-03-07T14:22:27;19.08;;;10.98;;
325;SDS011;150;52.352;14.058;2024-03-07T14:25:09;14.32;;;8.93;;
325;SDS011;150;52.352;14.058;2024-03-07T14:28:11;12.30;;;8.40;;
325;SDS011;150;52.352;14.058;2024-03-07T14:30:44;13.20;;;8.48;;
325;SDS011;150;52.352;14.058;2024-03-07T14:33:18;13.35;;;8.38;;
325;SDS011;150;52.352;14.058;2024-03-07T14:38:46;12.50;;;7.88;;
325;SDS011;150;52.352;14.058;2024-03-07T14:41:15;15.67;;;9.80;;
325;SDS011;150;52.352;14.058;2024-03-07T14:43:44;15.48;;;11.35;;
325;SDS011;150;52.352;14.058;2024-03-07T14:46:11;12.48;;;8.23;;
325;SDS011;150;52.352;14.058;2024-03-07T14:48:41;14.00;;;7.70;;
325;SDS011;150;52.352;14.058;2024-03-07T14:51:09;16.53;;;10.73;;
325;SDS011;150;52.352;14.058;2024-03-07T14:53:38;14.50;;;8.93;;
325;SDS011;150;52.352;14.058;2024-03-07T14:56:06;14.52;;;9.73;;
325;SDS011;150;52.352;14.058;2024-03-07T14:58:34;17.85;;;9.27;;
325;SDS011;150;52.352;14.058;2024-03-07T15:01:02;13.27;;;9.53;;
325;SDS011;150;52.352;14.058;2024-03-07T15:03:28;15.65;;;9.43;;
325;SDS011;150;52.352;14.058;2024-03-07T15:05:55;12.48;;;7.70;;
325;SDS011;150;52.352;14.058;2024-03-07T15:08:24;14.38;;;9.55;;
325;SDS011;150;52.352;14.058;2024-03-07T15:10:54;16.10;;;8.85;;
325;SDS011;150;52.352;14.058;2024-03-07T15:13:28;14.50;;;9.27;;
325;SDS011;150;52.352;14.058;2024-03-07T15:15:55;12.13;;;8.55;;
325;SDS011;150;52.352;14.058;2024-03-07T15:18:25;13.60;;;8.25;;
325;SDS011;150;52.352;14.058;2024-03-07T15:20:52;11.90;;;8.80;;
325;SDS011;150;52.352;14.058;2024-03-07T15:23:19;16.20;;;9.98;;
325;SDS011;150;52.352;14.058;2024-03-07T15:25:47;13.60;;;7.82;;
325;SDS011;150;52.352;14.058;2024-03-07T15:28:14;12.40;;;7.95;;
325;SDS011;150;52.352;14.058;2024-03-07T15:30:40;13.77;;;8.70;;
325;SDS011;150;52.352;14.058;2024-03-07T15:33:07;9.98;;;7.53;;
325;SDS011;150;52.352;14.058;2024-03-07T15:35:36;11.70;;;8.70;;